createdAt,value
2023-01-07T00:01:11.707Z,101314.38
2023-01-07T00:03:39.411Z,101311.47
2023-01-07T00:06:12.420Z,101300.19
2023-01-07T00:08:40.967Z,101303.81
2023-01-07T00:11:10.117Z,101302.94
2023-01-07T00:13:37.366Z,101302.81
2023-01-07T00:16:07.706Z,101299.19
2023-01-07T00:18:35.664Z,101292.28
2023-01-07T00:21:04.540Z,101285.34
2023-01-07T00:23:32.196Z,101284.50
2023-01-07T00:26:10.380Z,101294.00
2023-01-07T00:28:40.752Z,101287.28
2023-01-07T00:31:09.585Z,101283.72
2023-01-07T00:33:37.798Z,101285.66
2023-01-07T00:36:08.463Z,101276.13
2023-01-07T00:38:38.674Z,101273.22
2023-01-07T00:41:05.888Z,101278.56
2023-01-07T00:43:32.857Z,101272.53
2023-01-07T00:45:59.743Z,101272.38
2023-01-07T00:48:26.547Z,101265.88
2023-01-07T00:50:53.541Z,101257.91
2023-01-07T00:53:21.513Z,101259.31
2023-01-07T00:55:49.759Z,101254.44
2023-01-07T00:58:22.337Z,101245.22
2023-01-07T01:00:51.051Z,101241.72
2023-01-07T01:03:17.720Z,101238.66
2023-01-07T01:05:45.439Z,101232.31
2023-01-07T01:08:12.286Z,101231.22
2023-01-07T01:10:39.129Z,101230.84
2023-01-07T01:13:06.807Z,101231.97
2023-01-07T01:15:33.677Z,101217.44
2023-01-07T01:18:00.487Z,101222.84
2023-01-07T01:20:27.270Z,101220.31
2023-01-07T01:22:54.069Z,101216.91
2023-01-07T01:25:21.112Z,101218.88
2023-01-07T01:27:47.878Z,101216.31
2023-01-07T01:30:14.632Z,101221.09
2023-01-07T01:32:41.538Z,101218.66
2023-01-07T01:35:08.791Z,101219.81
2023-01-07T01:37:36.042Z,101214.69
2023-01-07T01:40:07.540Z,101211.34
2023-01-07T01:42:34.436Z,101213.13
2023-01-07T01:45:04.718Z,101208.63
2023-01-07T01:47:37.698Z,101214.06
2023-01-07T01:50:35.887Z,101215.50
2023-01-07T01:53:16.614Z,101221.28
2023-01-07T01:55:53.740Z,101217.38
2023-01-07T01:58:24.461Z,101215.22
2023-01-07T02:00:52.092Z,101215.59
2023-01-07T02:03:21.753Z,101211.97
2023-01-07T02:05:49.073Z,101219.00
2023-01-07T02:08:21.983Z,101210.41
2023-01-07T02:11:27.787Z,101213.88
2023-01-07T02:14:15.884Z,101213.25
2023-01-07T02:17:04.374Z,101217.25
2023-01-07T02:20:08.322Z,101208.72
2023-01-07T02:22:57.377Z,101210.53
2023-01-07T02:26:01.929Z,101198.97
2023-01-07T02:28:28.743Z,101196.16
2023-01-07T02:31:06.028Z,101195.78
2023-01-07T02:34:07.484Z,101197.94
2023-01-07T02:36:38.455Z,101186.91
2023-01-07T02:39:27.076Z,101188.31
2023-01-07T02:42:20.077Z,101192.00
2023-01-07T02:45:05.128Z,101193.28
2023-01-07T02:47:37.943Z,101191.84
2023-01-07T02:50:06.826Z,101188.63
2023-01-07T02:52:34.659Z,101182.41
2023-01-07T02:55:05.553Z,101192.00
2023-01-07T02:57:35.398Z,101190.09
2023-01-07T03:00:14.165Z,101184.66
2023-01-07T03:03:11.800Z,101187.69
2023-01-07T03:06:17.645Z,101176.50
2023-01-07T03:08:47.725Z,101177.31
2023-01-07T03:11:15.836Z,101170.03
2023-01-07T03:13:55.364Z,101171.19
2023-01-07T03:16:29.966Z,101165.63
2023-01-07T03:19:01.430Z,101164.50
2023-01-07T03:21:31.031Z,101164.03
2023-01-07T03:23:58.935Z,101147.06
2023-01-07T03:26:30.809Z,101155.84
2023-01-07T03:29:01.010Z,101139.09
2023-01-07T03:31:29.265Z,101137.31
2023-01-07T03:34:00.992Z,101126.28
2023-01-07T03:36:37.078Z,101131.38
2023-01-07T03:39:06.584Z,101123.41
2023-01-07T03:41:52.180Z,101118.47
2023-01-07T03:44:18.967Z,101124.88
2023-01-07T03:46:46.643Z,101117.31
2023-01-07T03:49:14.469Z,101120.03
2023-01-07T03:51:41.693Z,101120.81
2023-01-07T03:54:08.437Z,101112.06
2023-01-07T03:56:35.944Z,101111.41
2023-01-07T03:59:02.804Z,101112.22
2023-01-07T04:01:30.793Z,101103.91
2023-01-07T04:03:58.025Z,101103.44
2023-01-07T04:06:24.842Z,101105.97
2023-01-07T04:08:51.930Z,101100.06
2023-01-07T04:11:18.726Z,101096.06
2023-01-07T04:13:45.573Z,101091.75
2023-01-07T04:16:12.747Z,101093.38
2023-01-07T04:18:39.557Z,101098.16
2023-01-07T04:21:06.482Z,101092.72
2023-01-07T04:23:33.535Z,101081.84
2023-01-07T04:26:01.405Z,101091.91
2023-01-07T04:28:28.144Z,101079.94
2023-01-07T04:30:58.750Z,101081.88
2023-01-07T04:33:25.865Z,101075.13
2023-01-07T04:35:52.721Z,101070.97
2023-01-07T04:38:19.659Z,101067.00
2023-01-07T04:40:46.496Z,101062.19
2023-01-07T04:43:13.309Z,101049.88
2023-01-07T04:45:40.185Z,101059.50
2023-01-07T04:48:07.561Z,101044.78
2023-01-07T04:50:34.513Z,101043.81
2023-01-07T04:53:01.899Z,101041.72
2023-01-07T04:55:29.387Z,101046.84
2023-01-07T04:57:56.772Z,101039.34
2023-01-07T05:00:23.815Z,101034.72
2023-01-07T05:02:52.779Z,101027.38
2023-01-07T05:05:19.656Z,101023.97
2023-01-07T05:07:47.956Z,101029.94
2023-01-07T05:10:16.280Z,101023.47
2023-01-07T05:12:43.626Z,101024.19
2023-01-07T05:15:12.106Z,101021.63
2023-01-07T05:17:40.967Z,101012.84
2023-01-07T05:20:09.215Z,101017.63
2023-01-07T05:22:37.747Z,101011.84
2023-01-07T05:25:05.406Z,101017.94
2023-01-07T05:27:32.173Z,101009.16
2023-01-07T05:30:00.426Z,101002.56
2023-01-07T05:32:27.190Z,101004.63
2023-01-07T05:34:54.133Z,101006.63
2023-01-07T05:37:21.572Z,100995.53
2023-01-07T05:39:48.304Z,100983.28
2023-01-07T05:42:18.425Z,100994.47
2023-01-07T05:44:45.423Z,100988.25
2023-01-07T05:47:12.350Z,100991.25
2023-01-07T05:49:39.167Z,100984.03
2023-01-07T05:52:05.928Z,100974.50
2023-01-07T05:54:32.958Z,100973.56
2023-01-07T05:56:59.802Z,100966.03
2023-01-07T05:59:26.645Z,100963.31
2023-01-07T06:01:53.484Z,100952.13
2023-01-07T06:04:20.483Z,100953.56
2023-01-07T06:06:47.618Z,100955.00
2023-01-07T06:09:14.553Z,100947.50
2023-01-07T06:11:41.398Z,100952.78
2023-01-07T06:14:08.236Z,100948.78
2023-01-07T06:16:35.479Z,100947.34
2023-01-07T06:19:02.246Z,100936.97
2023-01-07T06:21:29.356Z,100936.78
2023-01-07T06:23:56.226Z,100934.41
2023-01-07T06:26:23.115Z,100935.06
2023-01-07T06:28:51.683Z,100948.09
2023-01-07T06:31:18.654Z,100933.78
2023-01-07T06:33:45.445Z,100935.69
2023-01-07T06:36:12.478Z,100939.81
2023-01-07T06:38:39.399Z,100930.75
2023-01-07T06:41:06.472Z,100930.53
2023-01-07T06:43:33.305Z,100930.88
2023-01-07T06:46:00.862Z,100925.50
2023-01-07T06:48:27.937Z,100927.78
2023-01-07T06:50:54.877Z,100936.44
2023-01-07T06:53:21.679Z,100933.84
2023-01-07T06:55:49.890Z,100931.03
2023-01-07T06:58:17.326Z,100934.66
2023-01-07T07:00:45.121Z,100938.53
2023-01-07T07:03:12.102Z,100924.97
2023-01-07T07:05:40.143Z,100926.06
2023-01-07T07:08:06.930Z,100917.00
2023-01-07T07:10:33.942Z,100916.13
2023-01-07T07:13:00.759Z,100907.06
2023-01-07T07:15:28.010Z,100910.47
2023-01-07T07:17:54.741Z,100921.94
2023-01-07T07:20:22.002Z,100913.97
2023-01-07T07:22:49.307Z,100910.06
2023-01-07T07:25:16.164Z,100905.78
2023-01-07T07:27:46.691Z,100905.44
2023-01-07T07:30:15.141Z,100901.38
2023-01-07T07:32:42.559Z,100899.47
2023-01-07T07:35:10.484Z,100894.94
2023-01-07T07:37:37.486Z,100899.63
2023-01-07T07:40:05.524Z,100898.91
2023-01-07T07:42:32.797Z,100894.34
2023-01-07T07:45:19.935Z,100887.38
2023-01-07T07:47:47.248Z,100895.75
2023-01-07T07:50:14.357Z,100891.88
2023-01-07T07:52:41.184Z,100891.59
2023-01-07T07:55:19.990Z,100887.00
2023-01-07T07:57:49.123Z,100886.13
2023-01-07T08:00:16.059Z,100872.25
2023-01-07T08:02:42.884Z,100885.28
2023-01-07T08:05:11.558Z,100877.59
2023-01-07T08:07:39.538Z,100878.91
2023-01-07T08:10:07.168Z,100869.31
2023-01-07T08:12:38.538Z,100874.53
2023-01-07T08:15:06.575Z,100868.13
2023-01-07T08:17:33.793Z,100862.66
2023-01-07T08:20:00.559Z,100862.94
2023-01-07T08:22:27.691Z,100856.41
2023-01-07T08:24:54.717Z,100852.69
2023-01-07T08:27:21.578Z,100851.66
2023-01-07T08:29:48.559Z,100838.75
2023-01-07T08:32:15.606Z,100826.44
2023-01-07T08:34:42.498Z,100826.91
2023-01-07T08:37:09.370Z,100819.47
2023-01-07T08:39:36.294Z,100824.19
2023-01-07T08:42:03.516Z,100814.94
2023-01-07T08:44:30.571Z,100811.16
2023-01-07T08:46:57.469Z,100801.22
2023-01-07T08:49:24.371Z,100803.19
2023-01-07T08:51:51.303Z,100805.38
2023-01-07T08:54:18.185Z,100800.75
2023-01-07T08:56:45.402Z,100787.34
2023-01-07T08:59:12.248Z,100780.28
2023-01-07T09:01:39.315Z,100776.78
2023-01-07T09:04:06.294Z,100778.72
2023-01-07T09:06:33.399Z,100773.03
2023-01-07T09:09:00.158Z,100781.16
2023-01-07T09:11:27.072Z,100774.75
2023-01-07T09:13:54.330Z,100763.81
2023-01-07T09:16:21.341Z,100773.47
2023-01-07T09:18:48.185Z,100771.91
2023-01-07T09:21:15.198Z,100772.13
2023-01-07T09:23:42.122Z,100769.25
2023-01-07T09:26:09.496Z,100764.88
2023-01-07T09:28:36.275Z,100766.50
2023-01-07T09:31:04.284Z,100765.94
2023-01-07T09:33:31.129Z,100761.81
2023-01-07T09:35:58.215Z,100750.19
2023-01-07T09:38:25.007Z,100751.94
2023-01-07T09:40:57.292Z,100749.22
2023-01-07T09:43:26.973Z,100744.47
2023-01-07T09:46:14.616Z,100743.78
2023-01-07T09:48:47.712Z,100739.75
2023-01-07T09:51:45.637Z,100728.34
2023-01-07T09:54:28.869Z,100724.56
2023-01-07T09:56:55.795Z,100726.88
2023-01-07T09:59:22.937Z,100718.69
2023-01-07T10:02:03.831Z,100712.78
2023-01-07T10:05:00.534Z,100709.72
2023-01-07T10:07:39.662Z,100690.38
2023-01-07T10:10:31.000Z,100691.06
2023-01-07T10:13:20.908Z,100687.03
2023-01-07T10:16:05.093Z,100673.41
2023-01-07T10:18:59.569Z,100673.56
2023-01-07T10:21:42.052Z,100675.50
2023-01-07T10:24:39.277Z,100680.22
2023-01-07T10:27:13.066Z,100676.34
2023-01-07T10:29:43.973Z,100671.75
2023-01-07T10:32:16.100Z,100676.94
2023-01-07T10:34:48.471Z,100674.47
2023-01-07T10:37:27.503Z,100669.84
2023-01-07T10:40:32.632Z,100665.69
2023-01-07T10:43:18.128Z,100656.88
2023-01-07T10:45:54.572Z,100653.28
2023-01-07T10:48:32.924Z,100634.50
2023-01-07T10:51:23.708Z,100638.13
2023-01-07T10:54:14.194Z,100628.50
2023-01-07T10:56:50.499Z,100621.72
2023-01-07T10:59:19.208Z,100599.69
2023-01-07T11:01:52.418Z,100592.03
2023-01-07T11:04:20.352Z,100596.41
2023-01-07T11:07:05.480Z,100583.28
2023-01-07T11:09:36.410Z,100579.03
2023-01-07T11:12:10.567Z,100577.09
2023-01-07T11:14:40.573Z,100578.84
2023-01-07T11:17:12.263Z,100562.75
2023-01-07T11:19:49.117Z,100566.25
2023-01-07T11:22:37.225Z,100554.34
2023-01-07T11:25:28.223Z,100557.19
2023-01-07T11:28:02.246Z,100537.88
2023-01-07T11:30:32.628Z,100535.56
2023-01-07T11:33:07.326Z,100541.88
2023-01-07T11:35:35.083Z,100533.63
2023-01-07T11:38:01.880Z,100531.69
2023-01-07T11:40:31.151Z,100531.13
2023-01-07T11:43:02.944Z,100513.88
2023-01-07T11:46:19.685Z,100512.41
2023-01-07T11:49:00.834Z,100512.34
2023-01-07T11:51:39.083Z,100517.66
2023-01-07T11:54:19.881Z,100507.91
2023-01-07T11:56:46.912Z,100501.81
2023-01-07T11:59:14.303Z,100493.72
2023-01-07T12:01:43.856Z,100483.47
2023-01-07T12:04:22.060Z,100483.91
2023-01-07T12:06:54.118Z,100487.72
2023-01-07T12:09:50.071Z,100494.28
2023-01-07T12:12:40.157Z,100488.22
2023-01-07T12:15:17.993Z,100481.16
2023-01-07T12:17:48.071Z,100492.25
2023-01-07T12:20:28.010Z,100482.44
2023-01-07T12:23:15.141Z,100485.09
2023-01-07T12:25:51.006Z,100473.13
2023-01-07T12:28:57.584Z,100466.81
2023-01-07T12:31:49.049Z,100464.56
2023-01-07T12:34:43.713Z,100463.53
2023-01-07T12:37:18.864Z,100440.63
2023-01-07T12:39:45.920Z,100442.13
2023-01-07T12:42:17.221Z,100447.41
2023-01-07T12:44:47.632Z,100434.75
2023-01-07T12:47:36.207Z,100413.72
2023-01-07T12:50:05.280Z,100406.44
2023-01-07T12:52:44.600Z,100392.53
2023-01-07T12:55:21.104Z,100400.91
2023-01-07T12:58:36.286Z,100391.00
2023-01-07T13:01:15.930Z,100392.00
2023-01-07T13:03:58.803Z,100390.91
2023-01-07T13:06:42.815Z,100373.34
2023-01-07T13:09:22.319Z,100365.13
2023-01-07T13:12:41.997Z,100360.22
2023-01-07T13:15:33.630Z,100356.16
2023-01-07T13:18:20.692Z,100342.44
2023-01-07T13:21:02.278Z,100337.81
2023-01-07T13:23:32.141Z,100334.97
2023-01-07T13:26:20.508Z,100328.88
2023-01-07T13:29:02.724Z,100325.00
2023-01-07T13:31:54.017Z,100320.72
2023-01-07T13:34:34.135Z,100325.47
2023-01-07T13:37:10.449Z,100325.47
2023-01-07T13:40:08.211Z,100312.44
2023-01-07T13:42:44.992Z,100312.88
2023-01-07T13:45:28.427Z,100314.00
2023-01-07T13:47:58.138Z,100309.06
2023-01-07T13:50:27.510Z,100310.34
2023-01-07T13:53:17.506Z,100307.31
2023-01-07T13:55:46.763Z,100297.06
2023-01-07T13:58:32.033Z,100306.13
2023-01-07T14:01:13.138Z,100306.66
2023-01-07T14:03:50.714Z,100291.81
2023-01-07T14:06:20.924Z,100288.00
2023-01-07T14:08:59.932Z,100292.63
2023-01-07T14:11:29.539Z,100296.00
2023-01-07T14:14:24.627Z,100286.63
2023-01-07T14:17:06.832Z,100279.44
2023-01-07T14:19:42.699Z,100280.84
2023-01-07T14:22:27.657Z,100280.63
2023-01-07T14:25:18.783Z,100282.13
2023-01-07T14:28:27.591Z,100284.94
2023-01-07T14:30:54.992Z,100269.41
2023-01-07T14:33:37.251Z,100278.56
2023-01-07T14:36:07.896Z,100276.44
2023-01-07T14:38:34.622Z,100285.47
2023-01-07T14:41:17.164Z,100276.91
2023-01-07T14:43:47.847Z,100270.81
2023-01-07T14:46:24.413Z,100277.38
2023-01-07T14:49:03.481Z,100273.97
2023-01-07T14:51:56.645Z,100279.94
2023-01-07T14:54:33.407Z,100278.91
2023-01-07T14:57:06.371Z,100266.25
2023-01-07T15:00:10.415Z,100265.34
2023-01-07T15:02:55.794Z,100258.81
2023-01-07T15:05:49.609Z,100255.91
2023-01-07T15:08:38.303Z,100251.59
2023-01-07T15:11:31.814Z,100256.94
2023-01-07T15:14:22.830Z,100257.88
2023-01-07T15:16:53.427Z,100255.16
2023-01-07T15:19:21.835Z,100239.78
2023-01-07T15:21:54.794Z,100245.25
2023-01-07T15:24:52.140Z,100237.75
2023-01-07T15:27:33.957Z,100238.34
2023-01-07T15:30:13.287Z,100248.81
2023-01-07T15:33:04.688Z,100235.84
2023-01-07T15:35:39.818Z,100229.50
2023-01-07T15:38:31.293Z,100229.38
2023-01-07T15:40:59.405Z,100226.22
2023-01-07T15:43:28.576Z,100224.63
2023-01-07T15:46:02.196Z,100235.47
2023-01-07T15:48:29.472Z,100228.44
2023-01-07T15:50:56.283Z,100218.81
2023-01-07T15:53:25.957Z,100228.94
2023-01-07T15:55:57.534Z,100221.66
2023-01-07T15:58:44.757Z,100213.38
2023-01-07T16:01:20.411Z,100211.78
2023-01-07T16:03:52.273Z,100214.88
2023-01-07T16:06:31.319Z,100208.47
2023-01-07T16:09:18.883Z,100214.41
2023-01-07T16:11:45.960Z,100210.34
2023-01-07T16:14:24.348Z,100220.44
2023-01-07T16:17:16.504Z,100227.28
2023-01-07T16:19:43.324Z,100207.88
2023-01-07T16:22:15.959Z,100221.56
2023-01-07T16:24:50.785Z,100212.41
2023-01-07T16:27:20.530Z,100209.38
2023-01-07T16:29:52.852Z,100220.59
2023-01-07T16:32:20.884Z,100214.00
2023-01-07T16:34:53.381Z,100212.50
2023-01-07T16:37:20.893Z,100194.44
2023-01-07T16:39:51.464Z,100201.13
2023-01-07T16:42:20.353Z,100192.16
2023-01-07T16:44:49.635Z,100188.06
2023-01-07T16:47:24.209Z,100184.13
2023-01-07T16:49:55.931Z,100195.94
2023-01-07T16:52:26.636Z,100187.50
2023-01-07T16:54:53.820Z,100181.41
2023-01-07T16:57:34.034Z,100177.91
2023-01-07T17:00:04.202Z,100175.06
2023-01-07T17:02:42.429Z,100183.53
2023-01-07T17:05:26.912Z,100175.94
2023-01-07T17:08:06.122Z,100186.44
2023-01-07T17:10:35.910Z,100170.84
2023-01-07T17:13:12.768Z,100160.88
2023-01-07T17:15:39.749Z,100166.72
2023-01-07T17:18:13.030Z,100151.13
2023-01-07T17:20:52.146Z,100141.50
2023-01-07T17:23:25.147Z,100126.13
2023-01-07T17:26:02.056Z,100133.03
2023-01-07T17:28:31.063Z,100137.31
2023-01-07T17:30:57.769Z,100144.09
2023-01-07T17:33:25.278Z,100165.13
2023-01-07T17:35:54.343Z,100157.94
2023-01-07T17:38:21.259Z,100152.66
2023-01-07T17:40:51.432Z,100144.72
2023-01-07T17:43:33.668Z,100158.69
2023-01-07T17:46:01.659Z,100149.53
2023-01-07T17:48:28.743Z,100142.72
2023-01-07T17:50:57.207Z,100151.66
2023-01-07T17:53:30.001Z,100135.28
2023-01-07T17:55:57.311Z,100146.97
2023-01-07T17:58:33.302Z,100145.75
2023-01-07T18:01:02.653Z,100146.44
2023-01-07T18:03:29.686Z,100148.88
2023-01-07T18:05:56.494Z,100133.38
2023-01-07T18:08:23.248Z,100153.22
2023-01-07T18:11:10.500Z,100148.28
2023-01-07T18:13:37.273Z,100143.19
2023-01-07T18:16:04.380Z,100154.56
2023-01-07T18:18:31.388Z,100132.72
2023-01-07T18:20:58.510Z,100151.19
2023-01-07T18:23:25.593Z,100153.22
2023-01-07T18:25:52.522Z,100148.16
2023-01-07T18:28:20.070Z,100151.28
2023-01-07T18:30:46.959Z,100131.22
2023-01-07T18:33:13.772Z,100139.44
2023-01-07T18:35:40.973Z,100135.69
2023-01-07T18:38:15.789Z,100135.31
2023-01-07T18:40:43.228Z,100133.44
2023-01-07T18:43:13.366Z,100138.25
2023-01-07T18:45:44.836Z,100141.84
2023-01-07T18:48:13.364Z,100129.00
2023-01-07T18:50:44.540Z,100135.09
2023-01-07T18:53:11.404Z,100140.06
2023-01-07T18:55:39.917Z,100144.91
2023-01-07T18:58:07.405Z,100137.41
2023-01-07T19:00:34.673Z,100134.22
2023-01-07T19:03:02.020Z,100140.81
2023-01-07T19:05:29.491Z,100150.69
2023-01-07T19:07:56.566Z,100149.13
2023-01-07T19:10:24.888Z,100150.72
2023-01-07T19:12:51.729Z,100137.91
2023-01-07T19:15:18.908Z,100139.28
2023-01-07T19:17:45.755Z,100119.91
2023-01-07T19:20:15.343Z,100111.25
2023-01-07T19:22:42.464Z,100118.06
2023-01-07T19:25:09.730Z,100123.34
2023-01-07T19:27:36.829Z,100104.03
2023-01-07T19:30:04.207Z,100102.31
2023-01-07T19:32:31.176Z,100116.50
2023-01-07T19:35:03.116Z,100114.50
2023-01-07T19:37:29.960Z,100121.44
2023-01-07T19:39:56.766Z,100117.84
2023-01-07T19:42:24.310Z,100121.91
2023-01-07T19:44:51.573Z,100111.53
2023-01-07T19:47:18.441Z,100115.56
2023-01-07T19:49:45.572Z,100110.09
2023-01-07T19:52:13.745Z,100107.88
2023-01-07T19:54:41.800Z,100098.41
2023-01-07T19:57:08.955Z,100107.09
2023-01-07T19:59:36.133Z,100107.56
2023-01-07T20:02:04.078Z,100101.91
2023-01-07T20:04:31.398Z,100094.09
2023-01-07T20:06:58.233Z,100098.94
2023-01-07T20:09:25.090Z,100089.97
2023-01-07T20:11:51.928Z,100096.59
2023-01-07T20:14:19.048Z,100100.31
2023-01-07T20:16:45.970Z,100085.84
2023-01-07T20:19:12.979Z,100066.31
2023-01-07T20:21:40.147Z,100079.19
2023-01-07T20:24:07.542Z,100080.09
2023-01-07T20:26:35.641Z,100089.03
2023-01-07T20:29:03.230Z,100095.25
2023-01-07T20:31:31.372Z,100069.03
2023-01-07T20:33:59.858Z,100084.06
2023-01-07T20:36:29.393Z,100084.91
2023-01-07T20:38:56.942Z,100085.97
2023-01-07T20:41:28.301Z,100092.41
2023-01-07T20:44:00.149Z,100092.84
2023-01-07T20:46:28.632Z,100078.63
2023-01-07T20:48:56.363Z,100071.84
2023-01-07T20:51:23.742Z,100087.56
2023-01-07T20:53:50.865Z,100082.13
2023-01-07T20:56:21.042Z,100074.69
2023-01-07T20:58:49.006Z,100070.50
2023-01-07T21:01:19.540Z,100058.63
2023-01-07T21:03:47.028Z,100050.25
2023-01-07T21:06:15.381Z,100055.69
2023-01-07T21:08:42.260Z,100047.06
2023-01-07T21:11:14.016Z,100051.16
2023-01-07T21:13:41.604Z,100043.47
2023-01-07T21:16:09.083Z,100042.44
2023-01-07T21:18:36.070Z,100043.69
2023-01-07T21:21:09.814Z,100028.34
2023-01-07T21:23:36.649Z,100039.25
2023-01-07T21:26:03.575Z,100040.75
2023-01-07T21:28:30.398Z,100044.47
2023-01-07T21:31:06.289Z,100039.50
2023-01-07T21:33:33.559Z,100044.47
2023-01-07T21:36:00.717Z,100043.81
2023-01-07T21:38:27.387Z,100050.03
2023-01-07T21:40:54.159Z,100049.47
2023-01-07T21:43:21.063Z,100041.66
2023-01-07T21:45:47.816Z,100044.38
2023-01-07T21:48:15.689Z,100043.38
2023-01-07T21:50:42.432Z,100030.00
2023-01-07T21:53:09.408Z,100027.28
2023-01-07T21:55:39.527Z,100010.34
2023-01-07T21:58:06.479Z,100012.13
2023-01-07T22:00:33.260Z,100012.75
2023-01-07T22:03:00.592Z,100012.44
2023-01-07T22:05:27.588Z,100002.19
2023-01-07T22:07:54.585Z,99994.56
2023-01-07T22:10:21.580Z,99990.25
2023-01-07T22:12:50.698Z,99979.25
2023-01-07T22:15:17.614Z,99991.94
2023-01-07T22:17:44.621Z,100008.38
2023-01-07T22:20:12.321Z,100007.53
2023-01-07T22:22:39.274Z,100012.03
2023-01-07T22:25:06.620Z,100004.38
2023-01-07T22:27:33.526Z,100007.28
2023-01-07T22:30:00.779Z,100004.78
2023-01-07T22:32:27.613Z,100012.72
2023-01-07T22:34:54.354Z,100008.16
2023-01-07T22:37:23.937Z,100018.34
2023-01-07T22:39:57.001Z,100023.56
2023-01-07T22:42:30.835Z,100016.09
2023-01-07T22:45:04.396Z,100010.66
2023-01-07T22:47:35.983Z,100012.59
2023-01-07T22:50:04.380Z,100023.44
2023-01-07T22:52:31.527Z,100019.69
2023-01-07T22:54:58.516Z,100025.72
2023-01-07T22:57:25.675Z,100009.78
2023-01-07T22:59:52.407Z,100002.19
2023-01-07T23:02:19.327Z,100010.78
2023-01-07T23:04:46.398Z,100003.63
2023-01-07T23:07:13.128Z,100002.88
2023-01-07T23:09:40.308Z,99998.22
2023-01-07T23:12:07.142Z,99999.50
2023-01-07T23:14:33.875Z,100004.16
2023-01-07T23:17:01.713Z,100000.72
2023-01-07T23:19:31.311Z,100007.78
2023-01-07T23:21:59.140Z,100009.81
2023-01-07T23:24:25.831Z,99994.16
2023-01-07T23:26:54.127Z,100004.50
2023-01-07T23:29:21.272Z,100012.69
2023-01-07T23:31:48.140Z,100005.53
2023-01-07T23:34:15.898Z,100014.38
2023-01-07T23:36:42.700Z,100015.56
2023-01-07T23:39:10.221Z,100008.53
2023-01-07T23:41:36.974Z,99994.69
2023-01-07T23:44:04.075Z,99996.66
2023-01-07T23:46:31.852Z,100000.81
2023-01-07T23:48:59.858Z,99996.31
2023-01-07T23:51:27.087Z,99989.38
2023-01-07T23:53:54.181Z,99993.22
2023-01-07T23:56:21.309Z,100014.16
2023-01-07T23:58:49.047Z,100007.09
